sensor_id;sensor_type;location;lat;lon;timestamp;P1;P2;P0
65783;PMS5003;52532;53.358;-1.488;2022-10-31T00:00:49;85.0;76.1;
65783;PMS5003;52532;53.358;-1.488;2022-10-31T00:03:53;80.1;67.3;
65783;PMS5003;52532;53.358;-1.488;2022-10-31T00:06:56;102.6;93.1;
65783;PMS5003;52532;53.358;-1.488;2022-10-31T00:10:00;66.7;57.0;
65783;PMS5003;52532;53.358;-1.488;2022-10-31T00:13:02;98.4;86.1;
65783;PMS5003;52532;53.358;-1.488;2022-10-31T00:16:12;110.1;98.1;
65783;PMS5003;52532;53.358;-1.488;2022-10-31T00:19:16;84.2;72.8;
65783;PMS5003;52532;53.358;-1.488;2022-10-31T00:22:19;110.8;97.7;
65783;PMS5003;52532;53.358;-1.488;2022-10-31T00:25:22;109.2;101.2;
65783;PMS5003;52532;53.358;-1.488;2022-10-31T00:28:25;73.6;63.1;
65783;PMS5003;52532;53.358;-1.488;2022-10-31T00:31:28;96.6;85.0;
65783;PMS5003;52532;53.358;-1.488;2022-10-31T00:34:31;93.3;85.3;
65783;PMS5003;52532;53.358;-1.488;2022-10-31T00:37:34;102.0;91.1;
65783;PMS5003;52532;53.358;-1.488;2022-10-31T00:40:37;108.4;97.3;
65783;PMS5003;52532;53.358;-1.488;2022-10-31T00:43:40;101.2;95.2;
65783;PMS5003;52532;53.358;-1.488;2022-10-31T00:46:42;105.1;94.6;
65783;PMS5003;52532;53.358;-1.488;2022-10-31T00:49:45;113.4;99.0;
65783;PMS5003;52532;53.358;-1.488;2022-10-31T00:52:48;98.5;89.1;
65783;PMS5003;52532;53.358;-1.488;2022-10-31T00:55:50;101.7;89.4;
65783;PMS5003;52532;53.358;-1.488;2022-10-31T00:58:53;106.1;94.9;
65783;PMS5003;52532;53.358;-1.488;2022-10-31T01:01:56;103.5;96.8;
65783;PMS5003;52532;53.358;-1.488;2022-10-31T01:04:59;103.7;93.2;
65783;PMS5003;52532;53.358;-1.488;2022-10-31T01:08:02;105.0;94.5;
65783;PMS5003;52532;53.358;-1.488;2022-10-31T01:11:06;111.5;100.6;
65783;PMS5003;52532;53.358;-1.488;2022-10-31T01:14:11;116.7;103.4;
65783;PMS5003;52532;53.358;-1.488;2022-10-31T01:17:15;111.2;98.5;
65783;PMS5003;52532;53.358;-1.488;2022-10-31T01:20:18;115.0;103.8;
65783;PMS5003;52532;53.358;-1.488;2022-10-31T01:23:21;124.0;111.2;
65783;PMS5003;52532;53.358;-1.488;2022-10-31T01:26:25;118.1;107.0;
65783;PMS5003;52532;53.358;-1.488;2022-10-31T01:29:29;103.1;95.0;
65783;PMS5003;52532;53.358;-1.488;2022-10-31T01:32:31;116.4;103.3;
65783;PMS5003;52532;53.358;-1.488;2022-10-31T01:35:34;110.0;100.2;
65783;PMS5003;52532;53.358;-1.488;2022-10-31T01:38:37;92.1;83.8;
65783;PMS5003;52532;53.358;-1.488;2022-10-31T01:41:40;109.0;97.7;
65783;PMS5003;52532;53.358;-1.488;2022-10-31T01:44:53;106.3;96.8;
65783;PMS5003;52532;53.358;-1.488;2022-10-31T01:47:58;94.1;84.5;
65783;PMS5003;52532;53.358;-1.488;2022-10-31T01:51:01;110.8;98.4;
65783;PMS5003;52532;53.358;-1.488;2022-10-31T01:54:07;112.0;102.7;
65783;PMS5003;52532;53.358;-1.488;2022-10-31T01:57:14;108.7;98.1;
65783;PMS5003;52532;53.358;-1.488;2022-10-31T02:00:20;110.6;98.4;
65783;PMS5003;52532;53.358;-1.488;2022-10-31T02:03:24;110.8;103.1;
65783;PMS5003;52532;53.358;-1.488;2022-10-31T02:06:30;107.8;97.0;
65783;PMS5003;52532;53.358;-1.488;2022-10-31T02:09:40;109.9;96.6;
65783;PMS5003;52532;53.358;-1.488;2022-10-31T02:12:45;103.8;95.6;
65783;PMS5003;52532;53.358;-1.488;2022-10-31T02:15:49;105.8;93.9;
65783;PMS5003;52532;53.358;-1.488;2022-10-31T02:18:55;111.4;99.9;
65783;PMS5003;52532;53.358;-1.488;2022-10-31T02:22:00;101.9;91.2;
65783;PMS5003;52532;53.358;-1.488;2022-10-31T02:25:15;103.5;90.7;
65783;PMS5003;52532;53.358;-1.488;2022-10-31T02:28:33;112.4;100.0;
65783;PMS5003;52532;53.358;-1.488;2022-10-31T02:31:52;100.6;95.1;
65783;PMS5003;52532;53.358;-1.488;2022-10-31T02:35:03;105.8;92.3;
65783;PMS5003;52532;53.358;-1.488;2022-10-31T02:38:14;109.2;95.2;
65783;PMS5003;52532;53.358;-1.488;2022-10-31T02:41:29;93.0;84.0;
65783;PMS5003;52532;53.358;-1.488;2022-10-31T02:44:38;93.9;82.3;
65783;PMS5003;52532;53.358;-1.488;2022-10-31T02:47:46;98.1;87.5;
65783;PMS5003;52532;53.358;-1.488;2022-10-31T02:50:55;79.3;70.1;
65783;PMS5003;52532;53.358;-1.488;2022-10-31T02:54:00;89.4;77.4;
65783;PMS5003;52532;53.358;-1.488;2022-10-31T02:57:03;100.2;89.7;
65783;PMS5003;52532;53.358;-1.488;2022-10-31T03:00:09;84.7;76.4;
65783;PMS5003;52532;53.358;-1.488;2022-10-31T03:03:14;102.6;90.8;
65783;PMS5003;52532;53.358;-1.488;2022-10-31T03:06:23;106.3;96.1;
65783;PMS5003;52532;53.358;-1.488;2022-10-31T03:09:33;83.6;77.5;
65783;PMS5003;52532;53.358;-1.488;2022-10-31T03:12:46;95.9;84.4;
65783;PMS5003;52532;53.358;-1.488;2022-10-31T03:15:59;99.6;88.7;
65783;PMS5003;52532;53.358;-1.488;2022-10-31T03:19:10;88.9;78.7;
65783;PMS5003;52532;53.358;-1.488;2022-10-31T03:22:17;95.6;82.9;
65783;PMS5003;52532;53.358;-1.488;2022-10-31T03:25:23;106.0;94.0;
65783;PMS5003;52532;53.358;-1.488;2022-10-31T03:28:29;90.1;79.3;
65783;PMS5003;52532;53.358;-1.488;2022-10-31T03:31:37;106.1;93.6;
65783;PMS5003;52532;53.358;-1.488;2022-10-31T03:34:45;96.0;90.5;
65783;PMS5003;52532;53.358;-1.488;2022-10-31T03:37:50;93.9;81.7;
65783;PMS5003;52532;53.358;-1.488;2022-10-31T03:40:56;104.3;92.5;
65783;PMS5003;52532;53.358;-1.488;2022-10-31T03:44:03;92.4;87.5;
65783;PMS5003;52532;53.358;-1.488;2022-10-31T03:47:10;96.6;86.5;
65783;PMS5003;52532;53.358;-1.488;2022-10-31T03:50:13;101.8;90.4;
65783;PMS5003;52532;53.358;-1.488;2022-10-31T03:53:19;97.1;88.4;
65783;PMS5003;52532;53.358;-1.488;2022-10-31T03:56:29;87.2;77.8;
65783;PMS5003;52532;53.358;-1.488;2022-10-31T03:59:36;96.4;84.6;
65783;PMS5003;52532;53.358;-1.488;2022-10-31T04:02:45;81.2;74.6;
65783;PMS5003;52532;53.358;-1.488;2022-10-31T04:05:56;70.4;58.7;
65783;PMS5003;52532;53.358;-1.488;2022-10-31T04:09:03;93.9;81.6;
65783;PMS5003;52532;53.358;-1.488;2022-10-31T04:12:08;80.0;72.4;
65783;PMS5003;52532;53.358;-1.488;2022-10-31T04:15:16;64.4;52.6;
65783;PMS5003;52532;53.358;-1.488;2022-10-31T04:18:22;77.1;65.2;
65783;PMS5003;52532;53.358;-1.488;2022-10-31T04:21:27;60.0;55.8;
65783;PMS5003;52532;53.358;-1.488;2022-10-31T04:24:30;37.7;31.2;
65783;PMS5003;52532;53.358;-1.488;2022-10-31T04:27:33;59.2;49.4;
65783;PMS5003;52532;53.358;-1.488;2022-10-31T04:30:39;55.5;51.0;
65783;PMS5003;52532;53.358;-1.488;2022-10-31T04:33:45;32.0;29.6;
65783;PMS5003;52532;53.358;-1.488;2022-10-31T04:36:48;46.7;43.6;
65783;PMS5003;52532;53.358;-1.488;2022-10-31T04:39:51;57.1;56.7;
65783;PMS5003;52532;53.358;-1.488;2022-10-31T04:42:53;37.1;36.7;
65783;PMS5003;52532;53.358;-1.488;2022-10-31T04:45:56;44.2;43.2;
65783;PMS5003;52532;53.358;-1.488;2022-10-31T04:48:59;58.9;57.4;
65783;PMS5003;52532;53.358;-1.488;2022-10-31T04:52:02;33.8;33.6;
65783;PMS5003;52532;53.358;-1.488;2022-10-31T04:55:05;32.9;32.9;
65783;PMS5003;52532;53.358;-1.488;2022-10-31T04:58:09;57.2;56.5;
65783;PMS5003;52532;53.358;-1.488;2022-10-31T05:01:11;44.0;43.1;
65783;PMS5003;52532;53.358;-1.488;2022-10-31T05:04:14;43.6;43.6;
65783;PMS5003;52532;53.358;-1.488;2022-10-31T05:07:17;66.3;66.3;
65783;PMS5003;52532;53.358;-1.488;2022-10-31T05:10:20;53.5;53.5;
65783;PMS5003;52532;53.358;-1.488;2022-10-31T05:13:25;52.7;52.0;
65783;PMS5003;52532;53.358;-1.488;2022-10-31T05:16:28;65.9;65.9;
65783;PMS5003;52532;53.358;-1.488;2022-10-31T05:19:31;36.0;36.0;
65783;PMS5003;52532;53.358;-1.488;2022-10-31T05:22:34;51.6;47.3;
65783;PMS5003;52532;53.358;-1.488;2022-10-31T05:25:37;60.1;60.1;
65783;PMS5003;52532;53.358;-1.488;2022-10-31T05:28:41;42.8;41.9;
65783;PMS5003;52532;53.358;-1.488;2022-10-31T05:31:44;49.2;48.1;
65783;PMS5003;52532;53.358;-1.488;2022-10-31T05:34:47;53.3;53.3;
65783;PMS5003;52532;53.358;-1.488;2022-10-31T05:37:49;46.1;45.4;
65783;PMS5003;52532;53.358;-1.488;2022-10-31T05:40:54;63.6;60.8;
65783;PMS5003;52532;53.358;-1.488;2022-10-31T05:43:59;45.4;45.4;
65783;PMS5003;52532;53.358;-1.488;2022-10-31T05:47:02;28.6;28.3;
65783;PMS5003;52532;53.358;-1.488;2022-10-31T05:50:05;49.4;46.1;
65783;PMS5003;52532;53.358;-1.488;2022-10-31T05:53:09;55.8;55.8;
65783;PMS5003;52532;53.358;-1.488;2022-10-31T05:56:11;45.4;44.6;
65783;PMS5003;52532;53.358;-1.488;2022-10-31T05:59:14;64.1;61.0;
65783;PMS5003;52532;53.358;-1.488;2022-10-31T06:02:17;48.5;48.5;
65783;PMS5003;52532;53.358;-1.488;2022-10-31T06:05:19;41.6;40.4;
65783;PMS5003;52532;53.358;-1.488;2022-10-31T06:08:22;61.0;58.7;
65783;PMS5003;52532;53.358;-1.488;2022-10-31T06:11:25;50.9;50.9;
65783;PMS5003;52532;53.358;-1.488;2022-10-31T06:14:28;46.7;46.4;
65783;PMS5003;52532;53.358;-1.488;2022-10-31T06:17:30;70.3;69.1;
65783;PMS5003;52532;53.358;-1.488;2022-10-31T06:20:33;62.5;62.5;
65783;PMS5003;52532;53.358;-1.488;2022-10-31T06:23:36;50.1;47.8;
65783;PMS5003;52532;53.358;-1.488;2022-10-31T06:26:39;68.3;67.4;
65783;PMS5003;52532;53.358;-1.488;2022-10-31T06:29:42;46.1;46.1;
65783;PMS5003;52532;53.358;-1.488;2022-10-31T06:32:44;35.0;33.8;
65783;PMS5003;52532;53.358;-1.488;2022-10-31T06:35:47;62.6;62.6;
65783;PMS5003;52532;53.358;-1.488;2022-10-31T06:38:50;52.7;52.7;
65783;PMS5003;52532;53.358;-1.488;2022-10-31T06:41:53;44.7;44.7;
65783;PMS5003;52532;53.358;-1.488;2022-10-31T06:44:55;67.9;65.6;
65783;PMS5003;52532;53.358;-1.488;2022-10-31T06:47:58;46.7;46.7;
65783;PMS5003;52532;53.358;-1.488;2022-10-31T06:51:01;49.4;47.8;
65783;PMS5003;52532;53.358;-1.488;2022-10-31T06:54:04;64.9;64.9;
65783;PMS5003;52532;53.358;-1.488;2022-10-31T06:57:07;46.1;46.1;
65783;PMS5003;52532;53.358;-1.488;2022-10-31T07:00:11;51.8;50.0;
65783;PMS5003;52532;53.358;-1.488;2022-10-31T07:03:14;53.4;53.4;
65783;PMS5003;52532;53.358;-1.488;2022-10-31T07:06:18;45.9;44.6;
65783;PMS5003;52532;53.358;-1.488;2022-10-31T07:09:21;48.2;44.5;
65783;PMS5003;52532;53.358;-1.488;2022-10-31T07:12:23;56.5;56.5;
65783;PMS5003;52532;53.358;-1.488;2022-10-31T07:15:27;65.3;62.4;
65783;PMS5003;52532;53.358;-1.488;2022-10-31T07:18:31;63.3;58.5;
65783;PMS5003;52532;53.358;-1.488;2022-10-31T07:21:34;64.8;64.0;
65783;PMS5003;52532;53.358;-1.488;2022-10-31T07:24:37;58.3;58.3;
65783;PMS5003;52532;53.358;-1.488;2022-10-31T07:27:40;51.1;48.0;
65783;PMS5003;52532;53.358;-1.488;2022-10-31T07:30:48;87.2;74.9;
65783;PMS5003;52532;53.358;-1.488;2022-10-31T07:33:52;87.7;76.8;
65783;PMS5003;52532;53.358;-1.488;2022-10-31T07:36:58;69.5;64.3;
65783;PMS5003;52532;53.358;-1.488;2022-10-31T07:40:00;77.4;76.5;
65783;PMS5003;52532;53.358;-1.488;2022-10-31T07:43:03;61.5;60.6;
65783;PMS5003;52532;53.358;-1.488;2022-10-31T07:46:07;48.4;47.6;
65783;PMS5003;52532;53.358;-1.488;2022-10-31T07:49:10;70.7;70.4;
65783;PMS5003;52532;53.358;-1.488;2022-10-31T07:52:12;67.6;66.7;
65783;PMS5003;52532;53.358;-1.488;2022-10-31T07:55:15;59.2;53.3;
65783;PMS5003;52532;53.358;-1.488;2022-10-31T07:58:18;82.7;71.8;
65783;PMS5003;52532;53.358;-1.488;2022-10-31T08:01:21;73.4;64.0;
65783;PMS5003;52532;53.358;-1.488;2022-10-31T08:04:29;37.9;30.4;
65783;PMS5003;52532;53.358;-1.488;2022-10-31T08:07:35;61.0;49.8;
65783;PMS5003;52532;53.358;-1.488;2022-10-31T08:10:39;68.9;59.5;
65783;PMS5003;52532;53.358;-1.488;2022-10-31T08:13:42;10.1;2.5;
65783;PMS5003;52532;53.358;-1.488;2022-10-31T08:16:45;15.1;4.4;
65783;PMS5003;52532;53.358;-1.488;2022-10-31T08:19:47;24.6;14.2;
65783;PMS5003;52532;53.358;-1.488;2022-10-31T08:22:54;15.6;6.9;
65783;PMS5003;52532;53.358;-1.488;2022-10-31T08:25:58;35.9;24.6;
65783;PMS5003;52532;53.358;-1.488;2022-10-31T08:29:01;33.7;24.1;
65783;PMS5003;52532;53.358;-1.488;2022-10-31T08:32:05;46.7;37.4;
65783;PMS5003;52532;53.358;-1.488;2022-10-31T08:35:08;73.6;62.4;
65783;PMS5003;52532;53.358;-1.488;2022-10-31T08:38:11;53.8;46.0;
65783;PMS5003;52532;53.358;-1.488;2022-10-31T08:41:14;18.3;8.4;
65783;PMS5003;52532;53.358;-1.488;2022-10-31T08:44:17;17.9;7.2;
65783;PMS5003;52532;53.358;-1.488;2022-10-31T08:47:20;21.3;12.8;
65783;PMS5003;52532;53.358;-1.488;2022-10-31T08:50:23;21.4;11.4;
65783;PMS5003;52532;53.358;-1.488;2022-10-31T08:53:26;35.4;24.8;
65783;PMS5003;52532;53.358;-1.488;2022-10-31T08:56:29;26.9;19.9;
65783;PMS5003;52532;53.358;-1.488;2022-10-31T08:59:32;17.0;6.9;
65783;PMS5003;52532;53.358;-1.488;2022-10-31T09:02:35;26.1;15.8;
65783;PMS5003;52532;53.358;-1.488;2022-10-31T09:05:47;14.3;6.7;
65783;PMS5003;52532;53.358;-1.488;2022-10-31T09:08:51;9.7;0.0;
65783;PMS5003;52532;53.358;-1.488;2022-10-31T09:11:53;10.5;0.0;
65783;PMS5003;52532;53.358;-1.488;2022-10-31T09:14:56;9.7;2.8;
65783;PMS5003;52532;53.358;-1.488;2022-10-31T09:17:59;11.0;1.0;
65783;PMS5003;52532;53.358;-1.488;2022-10-31T09:21:02;11.1;0.0;
65783;PMS5003;52532;53.358;-1.488;2022-10-31T09:24:05;9.6;2.5;
65783;PMS5003;52532;53.358;-1.488;2022-10-31T09:27:08;10.4;0.4;
65783;PMS5003;52532;53.358;-1.488;2022-10-31T09:30:11;10.5;1.3;
65783;PMS5003;52532;53.358;-1.488;2022-10-31T09:33:14;19.7;12.4;
65783;PMS5003;52532;53.358;-1.488;2022-10-31T09:36:18;22.9;12.3;
65783;PMS5003;52532;53.358;-1.488;2022-10-31T09:39:21;28.7;18.7;
65783;PMS5003;52532;53.358;-1.488;2022-10-31T09:42:27;44.7;36.9;
65783;PMS5003;52532;53.358;-1.488;2022-10-31T09:45:45;86.3;75.1;
65783;PMS5003;52532;53.358;-1.488;2022-10-31T09:49:00;70.1;61.6;
65783;PMS5003;52532;53.358;-1.488;2022-10-31T09:52:18;25.8;19.2;
65783;PMS5003;52532;53.358;-1.488;2022-10-31T09:55:26;15.5;4.6;
65783;PMS5003;52532;53.358;-1.488;2022-10-31T09:58:38;13.9;3.6;
65783;PMS5003;52532;53.358;-1.488;2022-10-31T10:01:45;15.9;8.3;
65783;PMS5003;52532;53.358;-1.488;2022-10-31T10:04:54;19.7;8.2;
65783;PMS5003;52532;53.358;-1.488;2022-10-31T10:08:01;17.2;6.7;
65783;PMS5003;52532;53.358;-1.488;2022-10-31T10:11:18;8.7;0.9;
65783;PMS5003;52532;53.358;-1.488;2022-10-31T10:14:35;10.6;0.3;
65783;PMS5003;52532;53.358;-1.488;2022-10-31T10:17:48;8.5;0.3;
65783;PMS5003;52532;53.358;-1.488;2022-10-31T10:20:58;7.9;0.0;
65783;PMS5003;52532;53.358;-1.488;2022-10-31T10:24:11;10.0;0.0;
65783;PMS5003;52532;53.358;-1.488;2022-10-31T10:27:23;7.8;0.0;
65783;PMS5003;52532;53.358;-1.488;2022-10-31T10:30:38;7.7;0.0;
65783;PMS5003;52532;53.358;-1.488;2022-10-31T10:33:54;10.0;0.0;
65783;PMS5003;52532;53.358;-1.488;2022-10-31T10:37:04;6.8;0.0;
65783;PMS5003;52532;53.358;-1.488;2022-10-31T10:40:24;11.1;2.0;
65783;PMS5003;52532;53.358;-1.488;2022-10-31T10:43:30;10.2;0.0;
65783;PMS5003;52532;53.358;-1.488;2022-10-31T10:46:39;7.3;0.5;
65783;PMS5003;52532;53.358;-1.488;2022-10-31T10:50:48;11.7;2.6;
65783;PMS5003;52532;53.358;-1.488;2022-10-31T10:53:58;11.3;0.5;
65783;PMS5003;52532;53.358;-1.488;2022-10-31T10:57:19;6.9;0.0;
65783;PMS5003;52532;53.358;-1.488;2022-10-31T11:00:30;8.6;0.0;
65783;PMS5003;52532;53.358;-1.488;2022-10-31T11:03:36;9.9;0.0;
65783;PMS5003;52532;53.358;-1.488;2022-10-31T11:06:39;6.1;0.0;
65783;PMS5003;52532;53.358;-1.488;2022-10-31T11:09:42;8.9;0.0;
65783;PMS5003;52532;53.358;-1.488;2022-10-31T11:12:46;9.8;0.0;
65783;PMS5003;52532;53.358;-1.488;2022-10-31T11:16:03;6.1;0.0;
65783;PMS5003;52532;53.358;-1.488;2022-10-31T11:19:12;8.9;0.0;
65783;PMS5003;52532;53.358;-1.488;2022-10-31T11:22:18;9.5;0.0;
65783;PMS5003;52532;53.358;-1.488;2022-10-31T11:25:21;6.6;0.0;
65783;PMS5003;52532;53.358;-1.488;2022-10-31T11:28:30;10.6;0.0;
65783;PMS5003;52532;53.358;-1.488;2022-10-31T11:31:36;9.8;0.0;
65783;PMS5003;52532;53.358;-1.488;2022-10-31T11:34:42;6.3;0.0;
65783;PMS5003;52532;53.358;-1.488;2022-10-31T11:37:48;9.3;0.0;
65783;PMS5003;52532;53.358;-1.488;2022-10-31T11:40:54;9.5;0.0;
65783;PMS5003;52532;53.358;-1.488;2022-10-31T11:44:01;6.0;0.0;
65783;PMS5003;52532;53.358;-1.488;2022-10-31T11:47:09;9.5;0.0;
65783;PMS5003;52532;53.358;-1.488;2022-10-31T11:50:19;9.0;0.0;
65783;PMS5003;52532;53.358;-1.488;2022-10-31T11:53:26;6.5;0.0;
65783;PMS5003;52532;53.358;-1.488;2022-10-31T11:56:39;9.8;0.0;
65783;PMS5003;52532;53.358;-1.488;2022-10-31T11:59:50;9.1;0.0;
65783;PMS5003;52532;53.358;-1.488;2022-10-31T12:03:04;6.4;0.0;
65783;PMS5003;52532;53.358;-1.488;2022-10-31T12:06:18;9.9;0.0;
65783;PMS5003;52532;53.358;-1.488;2022-10-31T12:09:26;8.5;0.0;
65783;PMS5003;52532;53.358;-1.488;2022-10-31T12:12:37;6.5;0.0;
65783;PMS5003;52532;53.358;-1.488;2022-10-31T12:15:50;10.0;0.0;
65783;PMS5003;52532;53.358;-1.488;2022-10-31T12:19:01;8.1;0.0;
65783;PMS5003;52532;53.358;-1.488;2022-10-31T12:22:10;9.8;0.0;
65783;PMS5003;52532;53.358;-1.488;2022-10-31T12:25:21;10.0;0.0;
65783;PMS5003;52532;53.358;-1.488;2022-10-31T12:28:37;8.5;0.0;
65783;PMS5003;52532;53.358;-1.488;2022-10-31T12:31:52;7.9;0.0;
65783;PMS5003;52532;53.358;-1.488;2022-10-31T12:35:09;10.0;0.0;
65783;PMS5003;52532;53.358;-1.488;2022-10-31T12:38:28;8.1;0.0;
65783;PMS5003;52532;53.358;-1.488;2022-10-31T12:41:45;9.0;0.0;
65783;PMS5003;52532;53.358;-1.488;2022-10-31T12:44:58;11.9;1.3;
65783;PMS5003;52532;53.358;-1.488;2022-10-31T12:48:16;29.2;20.8;
65783;PMS5003;52532;53.358;-1.488;2022-10-31T12:51:32;8.9;0.0;
65783;PMS5003;52532;53.358;-1.488;2022-10-31T12:54:47;9.9;0.0;
65783;PMS5003;52532;53.358;-1.488;2022-10-31T12:57:58;6.2;0.0;
65783;PMS5003;52532;53.358;-1.488;2022-10-31T13:01:07;8.9;0.0;
65783;PMS5003;52532;53.358;-1.488;2022-10-31T13:04:14;9.8;0.0;
65783;PMS5003;52532;53.358;-1.488;2022-10-31T13:07:21;6.4;0.0;
65783;PMS5003;52532;53.358;-1.488;2022-10-31T13:10:29;9.3;0.0;
65783;PMS5003;52532;53.358;-1.488;2022-10-31T13:13:36;9.7;0.0;
65783;PMS5003;52532;53.358;-1.488;2022-10-31T13:16:43;6.3;0.0;
65783;PMS5003;52532;53.358;-1.488;2022-10-31T13:19:48;9.5;0.0;
65783;PMS5003;52532;53.358;-1.488;2022-10-31T13:23:00;9.7;0.0;
65783;PMS5003;52532;53.358;-1.488;2022-10-31T13:26:12;7.1;0.0;
65783;PMS5003;52532;53.358;-1.488;2022-10-31T13:29:18;9.6;0.0;
65783;PMS5003;52532;53.358;-1.488;2022-10-31T13:32:26;9.7;0.0;
65783;PMS5003;52532;53.358;-1.488;2022-10-31T13:35:33;6.4;0.0;
65783;PMS5003;52532;53.358;-1.488;2022-10-31T13:38:46;9.4;0.0;
65783;PMS5003;52532;53.358;-1.488;2022-10-31T13:41:54;9.5;0.0;
65783;PMS5003;52532;53.358;-1.488;2022-10-31T13:45:10;6.7;0.0;
65783;PMS5003;52532;53.358;-1.488;2022-10-31T13:48:18;10.0;0.0;
65783;PMS5003;52532;53.358;-1.488;2022-10-31T13:51:35;9.5;0.0;
65783;PMS5003;52532;53.358;-1.488;2022-10-31T13:54:38;6.8;0.2;
65783;PMS5003;52532;53.358;-1.488;2022-10-31T13:57:43;9.7;0.0;
65783;PMS5003;52532;53.358;-1.488;2022-10-31T14:00:46;9.3;0.0;
65783;PMS5003;52532;53.358;-1.488;2022-10-31T14:04:02;6.2;0.0;
65783;PMS5003;52532;53.358;-1.488;2022-10-31T14:07:07;9.6;0.0;
65783;PMS5003;52532;53.358;-1.488;2022-10-31T14:10:20;9.0;0.0;
65783;PMS5003;52532;53.358;-1.488;2022-10-31T14:13:28;6.2;0.0;
65783;PMS5003;52532;53.358;-1.488;2022-10-31T14:16:34;9.6;0.0;
65783;PMS5003;52532;53.358;-1.488;2022-10-31T14:19:40;9.0;0.0;
65783;PMS5003;52532;53.358;-1.488;2022-10-31T14:22:42;6.3;0.0;
65783;PMS5003;52532;53.358;-1.488;2022-10-31T14:25:46;10.6;0.0;
65783;PMS5003;52532;53.358;-1.488;2022-10-31T14:28:49;8.8;0.0;
65783;PMS5003;52532;53.358;-1.488;2022-10-31T14:31:54;6.2;0.0;
65783;PMS5003;52532;53.358;-1.488;2022-10-31T14:34:59;9.9;0.0;
65783;PMS5003;52532;53.358;-1.488;2022-10-31T14:38:09;8.4;0.0;
65783;PMS5003;52532;53.358;-1.488;2022-10-31T14:41:25;6.3;0.0;
65783;PMS5003;52532;53.358;-1.488;2022-10-31T14:44:45;9.9;0.0;
65783;PMS5003;52532;53.358;-1.488;2022-10-31T14:48:08;8.5;0.0;
65783;PMS5003;52532;53.358;-1.488;2022-10-31T14:51:19;6.3;0.0;
65783;PMS5003;52532;53.358;-1.488;2022-10-31T14:54:27;9.9;0.0;
65783;PMS5003;52532;53.358;-1.488;2022-10-31T14:57:34;8.7;0.0;
65783;PMS5003;52532;53.358;-1.488;2022-10-31T15:00:39;6.1;0.0;
65783;PMS5003;52532;53.358;-1.488;2022-10-31T15:03:45;10.9;0.0;
65783;PMS5003;52532;53.358;-1.488;2022-10-31T15:06:50;8.8;0.0;
65783;PMS5003;52532;53.358;-1.488;2022-10-31T15:09:56;7.1;0.0;
65783;PMS5003;52532;53.358;-1.488;2022-10-31T15:13:08;10.6;0.0;
65783;PMS5003;52532;53.358;-1.488;2022-10-31T15:16:12;8.2;0.0;
65783;PMS5003;52532;53.358;-1.488;2022-10-31T15:19:20;6.4;0.0;
65783;PMS5003;52532;53.358;-1.488;2022-10-31T15:22:25;10.0;0.0;
65783;PMS5003;52532;53.358;-1.488;2022-10-31T15:25:34;8.2;0.0;
65783;PMS5003;52532;53.358;-1.488;2022-10-31T15:28:38;6.9;0.0;
65783;PMS5003;52532;53.358;-1.488;2022-10-31T15:31:48;9.8;0.0;
65783;PMS5003;52532;53.358;-1.488;2022-10-31T15:34:52;8.2;0.0;
65783;PMS5003;52532;53.358;-1.488;2022-10-31T15:37:56;7.1;0.0;
65783;PMS5003;52532;53.358;-1.488;2022-10-31T15:41:02;10.0;0.0;
65783;PMS5003;52532;53.358;-1.488;2022-10-31T15:44:12;7.8;0.0;
65783;PMS5003;52532;53.358;-1.488;2022-10-31T15:47:19;6.7;0.0;
65783;PMS5003;52532;53.358;-1.488;2022-10-31T15:50:28;10.0;0.0;
65783;PMS5003;52532;53.358;-1.488;2022-10-31T15:53:35;7.9;0.0;
65783;PMS5003;52532;53.358;-1.488;2022-10-31T15:56:40;7.7;0.0;
65783;PMS5003;52532;53.358;-1.488;2022-10-31T15:59:46;11.5;0.0;
65783;PMS5003;52532;53.358;-1.488;2022-10-31T16:03:00;7.8;0.0;
65783;PMS5003;52532;53.358;-1.488;2022-10-31T16:06:18;2.6;0.0;
65783;PMS5003;52532;53.358;-1.488;2022-10-31T16:09:23;0.1;0.0;
65783;PMS5003;52532;53.358;-1.488;2022-10-31T16:12:29;0.0;0.0;
65783;PMS5003;52532;53.358;-1.488;2022-10-31T16:15:36;0.0;0.0;
65783;PMS5003;52532;53.358;-1.488;2022-10-31T16:18:40;0.0;0.0;
65783;PMS5003;52532;53.358;-1.488;2022-10-31T16:21:45;0.0;0.0;
65783;PMS5003;52532;53.358;-1.488;2022-10-31T16:24:54;1.2;0.6;
65783;PMS5003;52532;53.358;-1.488;2022-10-31T16:28:14;1.7;0.3;
65783;PMS5003;52532;53.358;-1.488;2022-10-31T16:31:25;0.2;0.0;
65783;PMS5003;52532;53.358;-1.488;2022-10-31T16:34:30;0.7;0.0;
65783;PMS5003;52532;53.358;-1.488;2022-10-31T16:37:36;7.3;0.0;
65783;PMS5003;52532;53.358;-1.488;2022-10-31T16:40:40;6.8;0.0;
65783;PMS5003;52532;53.358;-1.488;2022-10-31T16:43:43;7.8;0.0;
65783;PMS5003;52532;53.358;-1.488;2022-10-31T16:46:46;9.1;0.1;
65783;PMS5003;52532;53.358;-1.488;2022-10-31T16:49:49;5.9;0.0;
65783;PMS5003;52532;53.358;-1.488;2022-10-31T16:52:54;9.1;0.0;
65783;PMS5003;52532;53.358;-1.488;2022-10-31T16:55:57;9.8;0.0;
65783;PMS5003;52532;53.358;-1.488;2022-10-31T16:59:04;5.6;0.0;
65783;PMS5003;52532;53.358;-1.488;2022-10-31T17:02:14;7.8;0.0;
65783;PMS5003;52532;53.358;-1.488;2022-10-31T17:05:19;6.2;0.0;
65783;PMS5003;52532;53.358;-1.488;2022-10-31T17:08:30;3.5;0.0;
65783;PMS5003;52532;53.358;-1.488;2022-10-31T17:11:35;8.9;0.0;
65783;PMS5003;52532;53.358;-1.488;2022-10-31T17:14:47;9.8;0.0;
65783;PMS5003;52532;53.358;-1.488;2022-10-31T17:18:00;6.1;0.4;
65783;PMS5003;52532;53.358;-1.488;2022-10-31T17:21:04;9.3;0.0;
65783;PMS5003;52532;53.358;-1.488;2022-10-31T17:24:09;9.8;0.0;
65783;PMS5003;52532;53.358;-1.488;2022-10-31T17:27:15;6.3;0.0;
65783;PMS5003;52532;53.358;-1.488;2022-10-31T17:30:20;6.3;0.0;
65783;PMS5003;52532;53.358;-1.488;2022-10-31T17:33:24;7.6;0.0;
65783;PMS5003;52532;53.358;-1.488;2022-10-31T17:36:27;5.8;0.0;
65783;PMS5003;52532;53.358;-1.488;2022-10-31T17:39:30;12.3;0.0;
65783;PMS5003;52532;53.358;-1.488;2022-10-31T17:42:33;10.4;0.0;
65783;PMS5003;52532;53.358;-1.488;2022-10-31T17:45:37;6.5;0.0;
65783;PMS5003;52532;53.358;-1.488;2022-10-31T17:48:42;9.4;0.0;
65783;PMS5003;52532;53.358;-1.488;2022-10-31T17:51:45;9.5;0.0;
65783;PMS5003;52532;53.358;-1.488;2022-10-31T17:54:49;6.3;0.0;
65783;PMS5003;52532;53.358;-1.488;2022-10-31T17:57:53;9.6;0.0;
65783;PMS5003;52532;53.358;-1.488;2022-10-31T18:04:07;6.5;0.0;
65783;PMS5003;52532;53.358;-1.488;2022-10-31T18:07:10;9.5;0.0;
65783;PMS5003;52532;53.358;-1.488;2022-10-31T18:10:13;9.3;0.0;
65783;PMS5003;52532;53.358;-1.488;2022-10-31T18:13:16;6.7;0.0;
65783;PMS5003;52532;53.358;-1.488;2022-10-31T18:16:19;11.1;0.0;
65783;PMS5003;52532;53.358;-1.488;2022-10-31T18:19:23;9.8;0.0;
65783;PMS5003;52532;53.358;-1.488;2022-10-31T18:22:26;6.4;0.0;
65783;PMS5003;52532;53.358;-1.488;2022-10-31T18:25:34;10.2;0.0;
65783;PMS5003;52532;53.358;-1.488;2022-10-31T18:28:39;10.0;0.0;
65783;PMS5003;52532;53.358;-1.488;2022-10-31T18:31:42;7.6;0.0;
65783;PMS5003;52532;53.358;-1.488;2022-10-31T18:34:48;10.8;0.0;
65783;PMS5003;52532;53.358;-1.488;2022-10-31T18:37:51;9.8;0.0;
65783;PMS5003;52532;53.358;-1.488;2022-10-31T18:40:54;6.6;0.0;
65783;PMS5003;52532;53.358;-1.488;2022-10-31T18:43:58;10.7;0.0;
65783;PMS5003;52532;53.358;-1.488;2022-10-31T18:47:02;9.1;0.0;
65783;PMS5003;52532;53.358;-1.488;2022-10-31T18:50:06;6.4;0.0;
65783;PMS5003;52532;53.358;-1.488;2022-10-31T18:53:11;9.9;0.0;
65783;PMS5003;52532;53.358;-1.488;2022-10-31T18:56:14;8.5;0.0;
65783;PMS5003;52532;53.358;-1.488;2022-10-31T18:59:17;11.3;0.0;
65783;PMS5003;52532;53.358;-1.488;2022-10-31T19:02:20;10.5;0.0;
65783;PMS5003;52532;53.358;-1.488;2022-10-31T19:05:24;8.2;0.0;
65783;PMS5003;52532;53.358;-1.488;2022-10-31T19:08:27;6.5;0.0;
65783;PMS5003;52532;53.358;-1.488;2022-10-31T19:11:31;10.0;0.0;
65783;PMS5003;52532;53.358;-1.488;2022-10-31T19:14:35;8.5;0.0;
65783;PMS5003;52532;53.358;-1.488;2022-10-31T19:17:40;6.8;0.0;